Wabash, Indiana
Current Conditions -  °F | °C
As of 12:55 AM on Sunday 23 Nov 2014 (Local Time) from KHHG Reporting Station
Light Rain Light Rain  
Wind Chill: 41°   Ceiling: 8000
Heat Index: 46°   Visibility: 10mi
Dew Point: 43°   Wind: 9mph
Humidity: 88%   Direction: 200°SSW
Pressure: 29.97"   Gusts: NA
Location:  40.8°N, 85.82°W
Report Text: KHHG 230555Z AUTO 20008KT 10SM -RA OVC080 08/06 A2997 RMK AO2 P0004 60007 T00780060 10110 20078
Loading
Personal Weather Stations






























Interactive Weather Map New forecast layout! Learn more

10-Day Weather Forecast

Advertisements
Track Severe Weather on mobile